createdAt,value
2022-11-28T00:00:58.788Z,5.40
2022-11-28T00:06:05.485Z,5.07
2022-11-28T00:11:12.062Z,5.63
2022-11-28T00:16:24.781Z,6.07
2022-11-28T00:21:34.417Z,5.40
2022-11-28T00:26:51.884Z,6.28
2022-11-28T00:31:55.621Z,6.30
2022-11-28T00:36:59.120Z,6.10
2022-11-28T00:42:16.606Z,6.00
2022-11-28T00:47:26.118Z,6.13
2022-11-28T00:52:51.837Z,6.43
2022-11-28T00:57:56.597Z,6.17
2022-11-28T01:03:01.086Z,5.65
2022-11-28T01:08:06.506Z,6.87
2022-11-28T01:13:11.891Z,6.60
2022-11-28T01:18:18.061Z,5.68
2022-11-28T01:23:21.430Z,5.55
2022-11-28T01:28:37.068Z,5.57
2022-11-28T01:34:08.222Z,6.37
2022-11-28T01:39:12.493Z,5.63
2022-11-28T01:45:06.951Z,5.80
2022-11-28T01:50:13.324Z,4.87
2022-11-28T01:55:22.372Z,5.20
2022-11-28T02:00:30.855Z,5.37
2022-11-28T02:05:56.430Z,5.10
2022-11-28T02:11:14.229Z,5.30
2022-11-28T02:16:43.809Z,4.80
2022-11-28T02:22:00.846Z,4.90
2022-11-28T02:27:33.495Z,4.77
2022-11-28T02:33:11.434Z,4.87
2022-11-28T02:38:23.690Z,5.20
2022-11-28T02:43:34.639Z,4.73
2022-11-28T02:48:44.590Z,4.65
2022-11-28T02:53:50.058Z,5.30
2022-11-28T02:59:36.259Z,5.00
2022-11-28T03:04:51.495Z,5.67
2022-11-28T03:10:18.811Z,5.68
2022-11-28T03:15:33.723Z,6.00
2022-11-28T03:20:48.875Z,6.70
2022-11-28T03:25:59.318Z,6.10
2022-11-28T03:31:36.952Z,6.50
2022-11-28T03:36:57.958Z,6.83
2022-11-28T03:42:22.461Z,5.53
2022-11-28T03:47:32.856Z,5.93
2022-11-28T03:52:41.802Z,5.57
2022-11-28T03:57:56.623Z,6.10
2022-11-28T04:03:08.928Z,5.67
2022-11-28T04:08:18.748Z,6.13
2022-11-28T04:13:25.351Z,6.63
2022-11-28T04:18:35.717Z,6.23
2022-11-28T04:23:45.605Z,5.60
2022-11-28T04:28:51.151Z,5.33
2022-11-28T04:33:59.883Z,5.37
2022-11-28T04:39:13.281Z,5.78
2022-11-28T04:44:23.188Z,5.80
2022-11-28T04:49:34.961Z,6.53
2022-11-28T04:54:54.352Z,5.83
2022-11-28T04:59:58.916Z,5.53
2022-11-28T05:05:02.284Z,5.50
2022-11-28T05:10:28.994Z,5.40
2022-11-28T05:15:34.393Z,5.03
2022-11-28T05:20:44.916Z,4.47
2022-11-28T05:26:09.393Z,4.77
2022-11-28T05:31:13.252Z,4.63
2022-11-28T05:36:38.675Z,4.03
2022-11-28T05:41:50.545Z,4.70
2022-11-28T05:46:55.107Z,4.57
2022-11-28T05:51:58.413Z,4.73
2022-11-28T05:57:03.387Z,4.33
2022-11-28T06:02:07.029Z,4.50
2022-11-28T06:07:10.594Z,5.00
2022-11-28T06:12:15.512Z,4.47
2022-11-28T06:17:21.065Z,4.03
2022-11-28T06:22:31.266Z,4.70
2022-11-28T06:27:37.279Z,5.80
2022-11-28T06:32:50.133Z,4.63
2022-11-28T06:37:53.502Z,4.33
2022-11-28T06:42:59.451Z,3.50
2022-11-28T06:48:03.289Z,3.97
2022-11-28T06:53:06.869Z,3.77
2022-11-28T06:58:13.872Z,3.67
2022-11-28T07:03:17.588Z,4.30
2022-11-28T07:08:22.061Z,3.47
2022-11-28T07:13:26.811Z,3.23
2022-11-28T07:18:53.274Z,4.17
2022-11-28T07:24:02.939Z,3.20
2022-11-28T07:29:16.129Z,3.57
2022-11-28T07:34:19.671Z,3.40
2022-11-28T07:53:09.868Z,4.25
2022-11-28T09:20:42.726Z,4.43
2022-11-28T09:25:46.184Z,5.38
2022-11-28T09:31:03.014Z,3.63
2022-11-28T09:36:17.376Z,3.35
2022-11-28T09:41:39.998Z,3.42
2022-11-28T09:46:58.476Z,3.03
2022-11-28T09:52:24.143Z,3.08
2022-11-28T09:57:36.217Z,3.95
2022-11-28T10:02:46.700Z,3.92
2022-11-28T10:08:14.626Z,3.17
2022-11-28T10:13:22.858Z,3.33
2022-11-28T10:19:09.910Z,3.20
2022-11-28T10:24:40.189Z,3.10
2022-11-28T10:29:53.435Z,2.58
2022-11-28T10:35:06.089Z,3.50
2022-11-28T10:40:35.023Z,5.07
2022-11-28T10:45:50.194Z,4.68
2022-11-28T10:51:12.021Z,3.55
2022-11-28T10:56:38.360Z,4.10
2022-11-28T11:07:22.753Z,4.43
2022-11-28T11:12:35.604Z,5.80
2022-11-28T11:17:40.968Z,13.35
2022-11-28T11:22:57.281Z,5.78
2022-11-28T11:28:08.151Z,4.43
2022-11-28T11:33:19.323Z,5.65
2022-11-28T11:38:37.312Z,4.60
2022-11-28T11:43:43.756Z,4.63
2022-11-28T11:49:04.971Z,4.20
2022-11-28T11:54:17.912Z,7.78
2022-11-28T11:59:27.799Z,5.13
2022-11-28T12:04:51.108Z,4.70
2022-11-28T12:10:04.702Z,5.78
2022-11-28T12:15:27.374Z,6.20
2022-11-28T12:20:54.987Z,7.13
2022-11-28T12:26:04.405Z,8.18
2022-11-28T12:31:18.792Z,7.07
2022-11-28T12:36:30.537Z,5.80
2022-11-28T12:42:02.867Z,9.82
2022-11-28T12:47:28.105Z,7.13
2022-11-28T12:52:53.115Z,10.60
2022-11-28T12:58:07.213Z,17.38
2022-11-28T13:03:26.415Z,12.35
2022-11-28T13:08:48.951Z,8.60
2022-11-28T13:13:56.479Z,8.13
2022-11-28T13:19:15.011Z,6.85
2022-11-28T13:24:26.711Z,6.35
2022-11-28T13:29:43.576Z,5.53
2022-11-28T13:34:51.739Z,5.50
2022-11-28T13:40:25.284Z,5.25
2022-11-28T13:45:32.448Z,4.30
2022-11-28T13:51:14.911Z,4.00
2022-11-28T13:56:28.061Z,7.63
2022-11-28T14:01:43.162Z,5.83
2022-11-28T14:06:58.981Z,4.80
2022-11-28T14:12:16.285Z,4.88
2022-11-28T14:17:43.811Z,3.90
2022-11-28T14:23:00.283Z,9.80
2022-11-28T14:28:06.984Z,6.13
2022-11-28T14:33:19.304Z,4.97
2022-11-28T14:38:44.070Z,5.47
2022-11-28T14:44:48.022Z,6.60
2022-11-28T14:50:31.855Z,6.50
2022-11-28T14:55:37.510Z,7.30
2022-11-28T15:00:50.261Z,5.43
2022-11-28T15:05:55.290Z,4.70
2022-11-28T15:11:16.106Z,4.68
2022-11-28T15:16:29.552Z,4.13
2022-11-28T15:21:43.009Z,4.32
2022-11-28T15:26:49.871Z,3.90
2022-11-28T15:31:59.169Z,4.20
2022-11-28T15:37:04.208Z,4.28
2022-11-28T15:42:19.650Z,4.30
2022-11-28T15:47:23.524Z,4.75
2022-11-28T15:52:26.992Z,4.68
2022-11-28T15:57:33.513Z,4.70
2022-11-28T16:02:41.118Z,4.43
2022-11-28T16:07:46.078Z,4.30
2022-11-28T16:13:16.241Z,4.60
2022-11-28T16:18:21.179Z,5.18
2022-11-28T16:23:30.218Z,6.45
2022-11-28T16:28:40.909Z,4.97
2022-11-28T16:33:47.945Z,5.57
2022-11-28T16:38:54.718Z,6.47
2022-11-28T16:44:06.608Z,6.85
2022-11-28T16:49:34.802Z,5.97
2022-11-28T16:54:39.234Z,6.30
2022-11-28T16:59:45.689Z,6.60
2022-11-28T17:04:50.950Z,5.35
2022-11-28T17:09:57.556Z,6.70
2022-11-28T17:15:16.584Z,10.35
2022-11-28T17:20:23.026Z,14.45
2022-11-28T17:25:32.378Z,11.30
2022-11-28T17:30:37.260Z,13.50
2022-11-28T17:35:44.859Z,15.55
2022-11-28T17:40:55.475Z,12.40
2022-11-28T17:46:01.533Z,9.35
2022-11-28T17:51:05.613Z,7.22
2022-11-28T17:56:11.936Z,6.43
2022-11-28T18:01:22.402Z,5.18
2022-11-28T18:06:26.481Z,9.48
2022-11-28T18:11:30.790Z,7.95
2022-11-28T18:16:36.876Z,8.27
2022-11-28T18:21:40.698Z,7.18
2022-11-28T18:26:48.444Z,7.82
2022-11-28T18:31:53.228Z,6.53
2022-11-28T18:37:00.929Z,6.57
2022-11-28T18:42:05.562Z,7.13
2022-11-28T18:47:19.391Z,7.03
2022-11-28T18:52:29.535Z,7.35
2022-11-28T18:57:38.277Z,5.95
2022-11-28T19:02:45.332Z,5.75
2022-11-28T19:07:48.773Z,5.82
2022-11-28T19:12:54.265Z,6.20
2022-11-28T19:18:01.388Z,5.85
2022-11-28T19:28:37.104Z,6.25
2022-11-28T19:33:43.458Z,6.65
2022-11-28T19:38:46.998Z,7.25
2022-11-28T19:43:52.128Z,7.20
2022-11-28T19:48:59.240Z,9.57
2022-11-28T19:54:04.099Z,10.68
2022-11-28T19:59:07.634Z,10.70
2022-11-28T20:04:13.688Z,9.32
2022-11-28T20:09:24.065Z,11.13
2022-11-28T20:14:31.625Z,8.15
2022-11-28T20:19:43.444Z,8.95
2022-11-28T20:24:51.198Z,8.00
2022-11-28T20:29:59.400Z,7.00
2022-11-28T20:35:05.727Z,6.00
2022-11-28T20:40:10.398Z,6.30
2022-11-28T20:45:20.409Z,7.78
2022-11-28T20:50:25.838Z,7.22
2022-11-28T21:06:53.408Z,6.88
2022-11-28T21:12:14.510Z,6.38
2022-11-28T21:17:48.065Z,5.82
2022-11-28T21:23:06.577Z,5.43
2022-11-28T21:28:53.196Z,7.88
2022-11-28T21:34:05.828Z,7.13
2022-11-28T21:39:22.259Z,7.00
2022-11-28T21:44:39.049Z,7.55
2022-11-28T21:49:47.461Z,7.88
2022-11-28T21:54:53.629Z,9.13
2022-11-28T21:59:59.850Z,10.27
2022-11-28T22:05:18.395Z,9.35
2022-11-28T22:10:33.383Z,10.40
2022-11-28T22:15:44.968Z,9.82
2022-11-28T22:20:53.159Z,9.15
2022-11-28T22:26:09.961Z,8.48
2022-11-28T22:31:42.114Z,8.38
2022-11-28T22:36:54.465Z,7.68
2022-11-28T22:42:10.720Z,7.65
2022-11-28T22:47:20.305Z,7.13
2022-11-28T22:52:37.270Z,8.05
2022-11-28T22:57:50.267Z,7.10
2022-11-28T23:02:57.505Z,6.28
2022-11-28T23:08:10.146Z,7.50
2022-11-28T23:13:15.537Z,7.15
2022-11-28T23:18:37.463Z,6.93
2022-11-28T23:23:41.070Z,7.57
2022-11-28T23:28:51.057Z,7.53
2022-11-28T23:33:55.187Z,7.65
2022-11-28T23:39:24.038Z,6.75
2022-11-28T23:44:42.350Z,7.10
2022-11-28T23:49:51.998Z,6.10
2022-11-28T23:54:56.938Z,5.88
